sensor_id;sensor_type;location;lat;lon;timestamp;temperature;humidity
45843;DHT22;31563;51.744;8.252;2024-03-23T00:54:25;18.70;61.70
45843;DHT22;31563;51.744;8.252;2024-03-23T00:56:52;18.60;61.60
45843;DHT22;31563;51.744;8.252;2024-03-23T00:59:18;18.60;61.60
45843;DHT22;31563;51.744;8.252;2024-03-23T01:01:47;18.60;61.70
45843;DHT22;31563;51.744;8.252;2024-03-23T01:04:13;18.60;62.30
45843;DHT22;31563;51.744;8.252;2024-03-23T01:06:40;18.60;61.70
45843;DHT22;31563;51.744;8.252;2024-03-23T01:09:06;18.50;61.70
45843;DHT22;31563;51.744;8.252;2024-03-23T01:11:37;18.50;61.70
45843;DHT22;31563;51.744;8.252;2024-03-23T01:14:03;18.50;62.30
45843;DHT22;31563;51.744;8.252;2024-03-23T01:16:30;18.50;61.70
45843;DHT22;31563;51.744;8.252;2024-03-23T01:18:57;18.50;61.80
45843;DHT22;31563;51.744;8.252;2024-03-23T01:21:24;18.50;61.90
45843;DHT22;31563;51.744;8.252;2024-03-23T01:23:50;18.50;61.90
45843;DHT22;31563;51.744;8.252;2024-03-23T01:26:17;18.50;61.80
45843;DHT22;31563;51.744;8.252;2024-03-23T01:28:44;18.50;61.70
45843;DHT22;31563;51.744;8.252;2024-03-23T01:31:11;18.50;61.60
45843;DHT22;31563;51.744;8.252;2024-03-23T01:33:40;18.50;61.60
45843;DHT22;31563;51.744;8.252;2024-03-23T01:36:07;18.50;61.60
45843;DHT22;31563;51.744;8.252;2024-03-23T01:38:33;18.50;62.20
45843;DHT22;31563;51.744;8.252;2024-03-23T01:41:00;18.50;62.10
45843;DHT22;31563;51.744;8.252;2024-03-23T01:43:26;18.50;62.10
45843;DHT22;31563;51.744;8.252;2024-03-23T01:45:55;18.40;61.50
45843;DHT22;31563;51.744;8.252;2024-03-23T01:48:21;18.40;62.10
45843;DHT22;31563;51.744;8.252;2024-03-23T01:50:48;18.40;61.50
45843;DHT22;31563;51.744;8.252;2024-03-23T01:53:15;18.40;61.60
45843;DHT22;31563;51.744;8.252;2024-03-23T01:55:43;18.40;61.60
45843;DHT22;31563;51.744;8.252;2024-03-23T01:58:09;18.30;61.60
45843;DHT22;31563;51.744;8.252;2024-03-23T02:00:36;18.40;61.60
45843;DHT22;31563;51.744;8.252;2024-03-23T02:03:22;18.30;61.50
45843;DHT22;31563;51.744;8.252;2024-03-23T02:05:49;18.40;61.50
45843;DHT22;31563;51.744;8.252;2024-03-23T02:08:17;18.30;61.50
45843;DHT22;31563;51.744;8.252;2024-03-23T02:10:44;18.30;61.40
45843;DHT22;31563;51.744;8.252;2024-03-23T02:13:10;18.30;61.40
45843;DHT22;31563;51.744;8.252;2024-03-23T02:15:39;18.30;61.40
45843;DHT22;31563;51.744;8.252;2024-03-23T02:18:07;18.30;61.40
45843;DHT22;31563;51.744;8.252;2024-03-23T02:20:34;18.30;61.50
45843;DHT22;31563;51.744;8.252;2024-03-23T02:23:02;18.30;61.50
45843;DHT22;31563;51.744;8.252;2024-03-23T02:25:29;18.20;61.40
45843;DHT22;31563;51.744;8.252;2024-03-23T02:27:55;18.20;61.40
45843;DHT22;31563;51.744;8.252;2024-03-23T02:30:24;18.20;61.40
45843;DHT22;31563;51.744;8.252;2024-03-23T02:32:50;18.20;61.50
45843;DHT22;31563;51.744;8.252;2024-03-23T02:35:17;18.20;62.10
45843;DHT22;31563;51.744;8.252;2024-03-23T02:37:45;18.20;61.50
45843;DHT22;31563;51.744;8.252;2024-03-23T02:40:14;18.10;62.10
45843;DHT22;31563;51.744;8.252;2024-03-23T02:42:40;18.10;61.50
45843;DHT22;31563;51.744;8.252;2024-03-23T02:45:07;18.10;61.50
45843;DHT22;31563;51.744;8.252;2024-03-23T02:47:33;18.10;61.60
45843;DHT22;31563;51.744;8.252;2024-03-23T02:50:00;18.00;61.50
45843;DHT22;31563;51.744;8.252;2024-03-23T02:52:26;18.00;61.50
45843;DHT22;31563;51.744;8.252;2024-03-23T02:54:53;18.00;62.30
45843;DHT22;31563;51.744;8.252;2024-03-23T02:57:21;18.00;61.70
45843;DHT22;31563;51.744;8.252;2024-03-23T02:59:48;18.00;61.70
45843;DHT22;31563;51.744;8.252;2024-03-23T03:02:15;18.00;61.60
45843;DHT22;31563;51.744;8.252;2024-03-23T03:04:42;18.00;61.50
45843;DHT22;31563;51.744;8.252;2024-03-23T03:07:08;18.00;61.50
45843;DHT22;31563;51.744;8.252;2024-03-23T03:09:35;18.00;61.40
45843;DHT22;31563;51.744;8.252;2024-03-23T03:12:01;18.00;61.40
45843;DHT22;31563;51.744;8.252;2024-03-23T03:14:30;18.00;61.40
45843;DHT22;31563;51.744;8.252;2024-03-23T03:16:56;18.00;61.40
45843;DHT22;31563;51.744;8.252;2024-03-23T03:19:23;18.00;61.40
45843;DHT22;31563;51.744;8.252;2024-03-23T03:21:49;17.90;61.30
45843;DHT22;31563;51.744;8.252;2024-03-23T03:24:16;17.90;61.90
45843;DHT22;31563;51.744;8.252;2024-03-23T03:26:43;17.90;61.40
45843;DHT22;31563;51.744;8.252;2024-03-23T03:29:10;17.90;61.40
45843;DHT22;31563;51.744;8.252;2024-03-23T03:31:38;17.90;61.50
45843;DHT22;31563;51.744;8.252;2024-03-23T03:34:05;17.90;61.40
45843;DHT22;31563;51.744;8.252;2024-03-23T03:36:32;17.90;61.90
45843;DHT22;31563;51.744;8.252;2024-03-23T03:38:59;17.90;61.30
45843;DHT22;31563;51.744;8.252;2024-03-23T03:41:25;17.90;61.20
45843;DHT22;31563;51.744;8.252;2024-03-23T03:43:52;17.90;61.30
45843;DHT22;31563;51.744;8.252;2024-03-23T03:46:18;17.90;61.20
45843;DHT22;31563;51.744;8.252;2024-03-23T03:48:46;17.90;61.20
45843;DHT22;31563;51.744;8.252;2024-03-23T03:51:14;17.90;61.20
45843;DHT22;31563;51.744;8.252;2024-03-23T03:53:41;17.90;61.10
45843;DHT22;31563;51.744;8.252;2024-03-23T03:56:07;17.80;61.20
45843;DHT22;31563;51.744;8.252;2024-03-23T03:58:34;17.80;61.80
45843;DHT22;31563;51.744;8.252;2024-03-23T04:01:01;17.80;61.30
45843;DHT22;31563;51.744;8.252;2024-03-23T04:03:28;17.80;61.20
45843;DHT22;31563;51.744;8.252;2024-03-23T04:05:56;17.80;61.30
45843;DHT22;31563;51.744;8.252;2024-03-23T04:08:24;17.70;61.20
45843;DHT22;31563;51.744;8.252;2024-03-23T04:10:50;17.70;61.10
45843;DHT22;31563;51.744;8.252;2024-03-23T04:13:17;17.70;61.10
45843;DHT22;31563;51.744;8.252;2024-03-23T04:15:43;17.70;61.30
45843;DHT22;31563;51.744;8.252;2024-03-23T04:18:10;17.60;61.20
45843;DHT22;31563;51.744;8.252;2024-03-23T04:20:36;17.60;62.00
45843;DHT22;31563;51.744;8.252;2024-03-23T04:23:04;17.60;61.40
45843;DHT22;31563;51.744;8.252;2024-03-23T04:25:31;17.60;61.40
45843;DHT22;31563;51.744;8.252;2024-03-23T04:27:58;17.60;61.50
45843;DHT22;31563;51.744;8.252;2024-03-23T04:30:24;17.60;61.50
45843;DHT22;31563;51.744;8.252;2024-03-23T04:32:54;17.60;61.40
45843;DHT22;31563;51.744;8.252;2024-03-23T04:35:20;17.60;61.30
45843;DHT22;31563;51.744;8.252;2024-03-23T04:37:48;17.60;61.20
45843;DHT22;31563;51.744;8.252;2024-03-23T04:40:16;17.60;61.90
45843;DHT22;31563;51.744;8.252;2024-03-23T04:42:43;17.60;61.30
45843;DHT22;31563;51.744;8.252;2024-03-23T04:45:11;17.60;61.20
45843;DHT22;31563;51.744;8.252;2024-03-23T04:47:38;17.60;61.30
45843;DHT22;31563;51.744;8.252;2024-03-23T04:50:05;17.60;61.30
45843;DHT22;31563;51.744;8.252;2024-03-23T04:52:32;17.60;61.20
45843;DHT22;31563;51.744;8.252;2024-03-23T04:54:58;17.70;61.00
45843;DHT22;31563;51.744;8.252;2024-03-23T04:57:26;17.80;60.90
45843;DHT22;31563;51.744;8.252;2024-03-23T04:59:52;17.90;60.80
45843;DHT22;31563;51.744;8.252;2024-03-23T05:02:19;17.90;60.50
45843;DHT22;31563;51.744;8.252;2024-03-23T05:04:47;18.00;60.40
45843;DHT22;31563;51.744;8.252;2024-03-23T05:07:13;18.00;60.20
45843;DHT22;31563;51.744;8.252;2024-03-23T05:09:40;18.10;60.20
45843;DHT22;31563;51.744;8.252;2024-03-23T05:12:06;18.20;60.00
45843;DHT22;31563;51.744;8.252;2024-03-23T05:14:34;18.20;59.80
45843;DHT22;31563;51.744;8.252;2024-03-23T05:17:00;18.30;59.70
45843;DHT22;31563;51.744;8.252;2024-03-23T05:19:28;18.30;59.50
45843;DHT22;31563;51.744;8.252;2024-03-23T05:21:54;18.30;59.50
45843;DHT22;31563;51.744;8.252;2024-03-23T05:24:21;18.30;59.40
45843;DHT22;31563;51.744;8.252;2024-03-23T05:26:47;18.40;59.30
45843;DHT22;31563;51.744;8.252;2024-03-23T05:29:14;18.40;59.10
45843;DHT22;31563;51.744;8.252;2024-03-23T05:31:41;18.50;59.10
45843;DHT22;31563;51.744;8.252;2024-03-23T05:34:08;18.50;59.10
45843;DHT22;31563;51.744;8.252;2024-03-23T05:36:35;18.50;59.00
45843;DHT22;31563;51.744;8.252;2024-03-23T05:39:02;18.50;59.00
45843;DHT22;31563;51.744;8.252;2024-03-23T05:41:29;18.50;58.80
45843;DHT22;31563;51.744;8.252;2024-03-23T05:43:56;18.60;58.80
45843;DHT22;31563;51.744;8.252;2024-03-23T05:46:22;18.50;58.70
45843;DHT22;31563;51.744;8.252;2024-03-23T05:48:50;18.60;58.70
45843;DHT22;31563;51.744;8.252;2024-03-23T05:51:16;18.60;58.70
45843;DHT22;31563;51.744;8.252;2024-03-23T05:53:44;18.70;59.20
45843;DHT22;31563;51.744;8.252;2024-03-23T05:56:10;18.60;58.40
45843;DHT22;31563;51.744;8.252;2024-03-23T05:58:37;18.70;58.40
45843;DHT22;31563;51.744;8.252;2024-03-23T06:01:03;18.70;58.30
45843;DHT22;31563;51.744;8.252;2024-03-23T06:03:30;18.70;58.20
45843;DHT22;31563;51.744;8.252;2024-03-23T06:05:58;18.60;54.20
45843;DHT22;31563;51.744;8.252;2024-03-23T06:08:25;18.50;54.80
45843;DHT22;31563;51.744;8.252;2024-03-23T06:10:51;18.50;55.60
45843;DHT22;31563;51.744;8.252;2024-03-23T06:13:18;18.50;56.00
45843;DHT22;31563;51.744;8.252;2024-03-23T06:15:44;18.50;56.00
45843;DHT22;31563;51.744;8.252;2024-03-23T06:18:12;18.60;55.70
45843;DHT22;31563;51.744;8.252;2024-03-23T06:20:38;18.60;55.60
45843;DHT22;31563;51.744;8.252;2024-03-23T06:23:07;18.60;55.60
45843;DHT22;31563;51.744;8.252;2024-03-23T06:25:33;18.50;51.80
45843;DHT22;31563;51.744;8.252;2024-03-23T06:28:00;18.40;54.00
45843;DHT22;31563;51.744;8.252;2024-03-23T06:30:28;18.50;54.20
45843;DHT22;31563;51.744;8.252;2024-03-23T06:32:55;18.60;54.20
45843;DHT22;31563;51.744;8.252;2024-03-23T06:35:21;18.70;53.80
45843;DHT22;31563;51.744;8.252;2024-03-23T06:37:48;18.80;53.70
45843;DHT22;31563;51.744;8.252;2024-03-23T06:40:16;18.90;53.60
45843;DHT22;31563;51.744;8.252;2024-03-23T06:42:43;18.80;53.70
45843;DHT22;31563;51.744;8.252;2024-03-23T06:45:09;18.80;53.70
45843;DHT22;31563;51.744;8.252;2024-03-23T06:47:36;18.80;54.00
45843;DHT22;31563;51.744;8.252;2024-03-23T06:50:03;18.80;54.60
45843;DHT22;31563;51.744;8.252;2024-03-23T06:52:30;18.90;54.10
45843;DHT22;31563;51.744;8.252;2024-03-23T06:54:57;19.00;53.70
45843;DHT22;31563;51.744;8.252;2024-03-23T06:57:25;19.10;53.40
45843;DHT22;31563;51.744;8.252;2024-03-23T06:59:51;19.10;53.50
45843;DHT22;31563;51.744;8.252;2024-03-23T07:02:18;19.10;53.40
45843;DHT22;31563;51.744;8.252;2024-03-23T07:04:45;19.10;54.20
45843;DHT22;31563;51.744;8.252;2024-03-23T07:07:12;19.20;53.60
45843;DHT22;31563;51.744;8.252;2024-03-23T07:09:38;19.20;53.70
45843;DHT22;31563;51.744;8.252;2024-03-23T07:12:05;19.30;53.50
45843;DHT22;31563;51.744;8.252;2024-03-23T07:14:33;19.40;53.70
45843;DHT22;31563;51.744;8.252;2024-03-23T07:17:00;19.60;53.70
45843;DHT22;31563;51.744;8.252;2024-03-23T07:19:26;19.70;53.30
45843;DHT22;31563;51.744;8.252;2024-03-23T07:21:54;19.80;53.30
45843;DHT22;31563;51.744;8.252;2024-03-23T07:24:20;19.90;55.50
45843;DHT22;31563;51.744;8.252;2024-03-23T07:26:47;20.30;56.20
45843;DHT22;31563;51.744;8.252;2024-03-23T07:29:13;20.60;56.70
45843;DHT22;31563;51.744;8.252;2024-03-23T07:31:42;20.60;57.40
45843;DHT22;31563;51.744;8.252;2024-03-23T07:34:08;20.60;58.10
45843;DHT22;31563;51.744;8.252;2024-03-23T07:36:35;20.50;59.00
45843;DHT22;31563;51.744;8.252;2024-03-23T07:39:01;20.40;60.20
45843;DHT22;31563;51.744;8.252;2024-03-23T07:41:29;20.30;60.40
45843;DHT22;31563;51.744;8.252;2024-03-23T07:43:56;20.30;60.00
45843;DHT22;31563;51.744;8.252;2024-03-23T07:46:23;20.40;60.70
45843;DHT22;31563;51.744;8.252;2024-03-23T07:48:52;20.50;60.20
45843;DHT22;31563;51.744;8.252;2024-03-23T07:51:21;20.40;61.10
45843;DHT22;31563;51.744;8.252;2024-03-23T07:53:47;20.60;62.10
45843;DHT22;31563;51.744;8.252;2024-03-23T07:56:15;20.80;61.70
45843;DHT22;31563;51.744;8.252;2024-03-23T07:58:41;21.10;60.90
45843;DHT22;31563;51.744;8.252;2024-03-23T08:01:09;21.30;61.30
45843;DHT22;31563;51.744;8.252;2024-03-23T08:03:37;21.70;59.60
45843;DHT22;31563;51.744;8.252;2024-03-23T08:06:09;21.80;59.30
45843;DHT22;31563;51.744;8.252;2024-03-23T08:08:36;21.90;58.90
45843;DHT22;31563;51.744;8.252;2024-03-23T08:11:03;22.10;58.10
45843;DHT22;31563;51.744;8.252;2024-03-23T08:13:29;22.00;57.90
45843;DHT22;31563;51.744;8.252;2024-03-23T08:15:57;21.80;58.20
45843;DHT22;31563;51.744;8.252;2024-03-23T08:18:23;22.00;58.60
45843;DHT22;31563;51.744;8.252;2024-03-23T08:20:56;22.40;58.50
45843;DHT22;31563;51.744;8.252;2024-03-23T08:23:24;22.40;57.70
45843;DHT22;31563;51.744;8.252;2024-03-23T08:25:51;22.70;53.40
45843;DHT22;31563;51.744;8.252;2024-03-23T08:28:17;23.30;53.70
45843;DHT22;31563;51.744;8.252;2024-03-23T08:30:44;23.40;51.10
45843;DHT22;31563;51.744;8.252;2024-03-23T08:33:10;23.40;50.60
45843;DHT22;31563;51.744;8.252;2024-03-23T08:35:38;23.90;46.60
45843;DHT22;31563;51.744;8.252;2024-03-23T08:38:04;23.90;42.90
45843;DHT22;31563;51.744;8.252;2024-03-23T08:40:32;24.40;44.40
45843;DHT22;31563;51.744;8.252;2024-03-23T08:42:58;24.90;45.60
45843;DHT22;31563;51.744;8.252;2024-03-23T08:45:25;25.30;45.40
45843;DHT22;31563;51.744;8.252;2024-03-23T08:47:53;25.50;45.30
45843;DHT22;31563;51.744;8.252;2024-03-23T08:50:20;25.80;44.90
45843;DHT22;31563;51.744;8.252;2024-03-23T08:52:47;26.10;44.70
45843;DHT22;31563;51.744;8.252;2024-03-23T08:55:14;26.80;44.80
45843;DHT22;31563;51.744;8.252;2024-03-23T08:57:42;26.30;43.70
45843;DHT22;31563;51.744;8.252;2024-03-23T09:00:10;25.50;44.40
45843;DHT22;31563;51.744;8.252;2024-03-23T09:02:37;25.10;46.60
45843;DHT22;31563;51.744;8.252;2024-03-23T09:05:05;25.00;47.10
45843;DHT22;31563;51.744;8.252;2024-03-23T09:07:31;24.70;47.40
45843;DHT22;31563;51.744;8.252;2024-03-23T09:09:58;24.50;47.90
45843;DHT22;31563;51.744;8.252;2024-03-23T09:12:24;24.30;48.50
45843;DHT22;31563;51.744;8.252;2024-03-23T09:14:53;24.60;49.20
45843;DHT22;31563;51.744;8.252;2024-03-23T09:17:19;25.00;40.30
45843;DHT22;31563;51.744;8.252;2024-03-23T09:19:46;25.10;38.60
45843;DHT22;31563;51.744;8.252;2024-03-23T09:22:12;25.10;37.90
45843;DHT22;31563;51.744;8.252;2024-03-23T09:24:39;24.20;38.50
45843;DHT22;31563;51.744;8.252;2024-03-23T09:27:06;23.20;38.80
45843;DHT22;31563;51.744;8.252;2024-03-23T09:29:34;23.00;41.70
45843;DHT22;31563;51.744;8.252;2024-03-23T09:32:01;23.40;43.10
45843;DHT22;31563;51.744;8.252;2024-03-23T09:34:28;24.50;42.20
45843;DHT22;31563;51.744;8.252;2024-03-23T09:36:54;24.70;38.20
45843;DHT22;31563;51.744;8.252;2024-03-23T09:39:21;25.00;36.90
45843;DHT22;31563;51.744;8.252;2024-03-23T09:41:47;25.70;37.40
45843;DHT22;31563;51.744;8.252;2024-03-23T09:44:14;26.70;37.80
45843;DHT22;31563;51.744;8.252;2024-03-23T09:46:40;27.50;37.20
45843;DHT22;31563;51.744;8.252;2024-03-23T09:49:09;28.00;36.70
45843;DHT22;31563;51.744;8.252;2024-03-23T09:51:36;28.40;36.50
45843;DHT22;31563;51.744;8.252;2024-03-23T09:54:03;28.90;36.70
45843;DHT22;31563;51.744;8.252;2024-03-23T09:56:29;29.40;36.60
45843;DHT22;31563;51.744;8.252;2024-03-23T09:59:02;29.90;36.80
45843;DHT22;31563;51.744;8.252;2024-03-23T10:01:30;30.20;36.50
45843;DHT22;31563;51.744;8.252;2024-03-23T10:03:57;30.50;36.70
45843;DHT22;31563;51.744;8.252;2024-03-23T10:06:24;30.90;35.40
45843;DHT22;31563;51.744;8.252;2024-03-23T10:08:52;29.90;36.80
45843;DHT22;31563;51.744;8.252;2024-03-23T10:11:19;29.30;38.20
45843;DHT22;31563;51.744;8.252;2024-03-23T10:13:47;30.60;38.20
45843;DHT22;31563;51.744;8.252;2024-03-23T10:16:21;30.30;36.90
45843;DHT22;31563;51.744;8.252;2024-03-23T10:18:49;28.70;39.00
45843;DHT22;31563;51.744;8.252;2024-03-23T10:21:15;27.50;41.00
45843;DHT22;31563;51.744;8.252;2024-03-23T10:23:45;26.60;42.50
45843;DHT22;31563;51.744;8.252;2024-03-23T10:26:17;25.90;43.80
45843;DHT22;31563;51.744;8.252;2024-03-23T10:28:55;25.40;44.60
45843;DHT22;31563;51.744;8.252;2024-03-23T10:31:23;24.90;45.60
45843;DHT22;31563;51.744;8.252;2024-03-23T10:33:51;24.70;46.40
45843;DHT22;31563;51.744;8.252;2024-03-23T10:36:20;24.70;46.70
45843;DHT22;31563;51.744;8.252;2024-03-23T10:38:50;24.70;44.20
45843;DHT22;31563;51.744;8.252;2024-03-23T10:41:17;25.10;44.20
45843;DHT22;31563;51.744;8.252;2024-03-23T10:43:45;26.30;43.70
45843;DHT22;31563;51.744;8.252;2024-03-23T10:46:12;26.60;41.40
45843;DHT22;31563;51.744;8.252;2024-03-23T10:48:39;26.00;42.10
45843;DHT22;31563;51.744;8.252;2024-03-23T10:51:07;25.40;43.80
45843;DHT22;31563;51.744;8.252;2024-03-23T10:53:35;25.00;44.00
45843;DHT22;31563;51.744;8.252;2024-03-23T10:56:04;24.70;45.10
45843;DHT22;31563;51.744;8.252;2024-03-23T10:58:36;24.30;44.90
45843;DHT22;31563;51.744;8.252;2024-03-23T11:01:04;24.20;45.90
45843;DHT22;31563;51.744;8.252;2024-03-23T11:03:35;24.30;46.20
45843;DHT22;31563;51.744;8.252;2024-03-23T11:06:03;25.10;45.10
45843;DHT22;31563;51.744;8.252;2024-03-23T11:08:34;25.30;43.90
45843;DHT22;31563;51.744;8.252;2024-03-23T11:11:17;27.50;43.60
45843;DHT22;31563;51.744;8.252;2024-03-23T11:13:47;31.80;39.00
45843;DHT22;31563;51.744;8.252;2024-03-23T11:16:17;32.60;36.30
45843;DHT22;31563;51.744;8.252;2024-03-23T11:18:44;33.30;35.40
45843;DHT22;31563;51.744;8.252;2024-03-23T11:21:10;35.90;34.60
45843;DHT22;31563;51.744;8.252;2024-03-23T11:23:37;37.00;33.00
45843;DHT22;31563;51.744;8.252;2024-03-23T11:26:07;37.40;31.70
45843;DHT22;31563;51.744;8.252;2024-03-23T11:28:36;33.80;32.80
45843;DHT22;31563;51.744;8.252;2024-03-23T11:31:08;31.40;36.50
45843;DHT22;31563;51.744;8.252;2024-03-23T11:33:36;29.80;38.90
45843;DHT22;31563;51.744;8.252;2024-03-23T11:36:03;28.50;41.70
45843;DHT22;31563;51.744;8.252;2024-03-23T11:38:36;27.60;43.50
45843;DHT22;31563;51.744;8.252;2024-03-23T11:41:03;27.00;44.80
45843;DHT22;31563;51.744;8.252;2024-03-23T11:43:30;27.20;46.00
45843;DHT22;31563;51.744;8.252;2024-03-23T11:45:58;27.00;45.80
45843;DHT22;31563;51.744;8.252;2024-03-23T11:48:29;27.10;45.50
45843;DHT22;31563;51.744;8.252;2024-03-23T11:50:58;27.50;45.70
45843;DHT22;31563;51.744;8.252;2024-03-23T11:53:26;31.40;41.70
45843;DHT22;31563;51.744;8.252;2024-03-23T11:55:54;32.40;38.50
45843;DHT22;31563;51.744;8.252;2024-03-23T11:58:23;33.40;38.20
45843;DHT22;31563;51.744;8.252;2024-03-23T12:00:50;34.40;37.80
45843;DHT22;31563;51.744;8.252;2024-03-23T12:03:19;35.80;36.00
45843;DHT22;31563;51.744;8.252;2024-03-23T12:05:49;36.20;30.20
45843;DHT22;31563;51.744;8.252;2024-03-23T12:08:20;33.70;33.10
45843;DHT22;31563;51.744;8.252;2024-03-23T12:10:49;31.30;37.40
45843;DHT22;31563;51.744;8.252;2024-03-23T12:13:18;29.80;38.00
45843;DHT22;31563;51.744;8.252;2024-03-23T12:15:45;29.40;40.50
45843;DHT22;31563;51.744;8.252;2024-03-23T12:18:13;28.90;42.00
45843;DHT22;31563;51.744;8.252;2024-03-23T12:20:41;28.40;43.20
45843;DHT22;31563;51.744;8.252;2024-03-23T12:23:09;29.30;43.20
45843;DHT22;31563;51.744;8.252;2024-03-23T12:25:35;29.40;41.80
45843;DHT22;31563;51.744;8.252;2024-03-23T12:28:03;28.90;42.80
45843;DHT22;31563;51.744;8.252;2024-03-23T12:30:32;28.50;43.20
45843;DHT22;31563;51.744;8.252;2024-03-23T12:32:59;28.40;43.10
45843;DHT22;31563;51.744;8.252;2024-03-23T12:35:25;28.10;43.30
45843;DHT22;31563;51.744;8.252;2024-03-23T12:37:54;27.80;44.60
45843;DHT22;31563;51.744;8.252;2024-03-23T12:40:20;27.50;44.40
45843;DHT22;31563;51.744;8.252;2024-03-23T12:42:47;27.40;44.90
45843;DHT22;31563;51.744;8.252;2024-03-23T12:45:13;28.10;44.70
45843;DHT22;31563;51.744;8.252;2024-03-23T12:47:40;28.30;41.60
45843;DHT22;31563;51.744;8.252;2024-03-23T12:50:07;28.00;44.30
45843;DHT22;31563;51.744;8.252;2024-03-23T12:52:35;27.90;41.90
45843;DHT22;31563;51.744;8.252;2024-03-23T12:55:04;27.90;44.00
45843;DHT22;31563;51.744;8.252;2024-03-23T12:57:32;27.90;43.10
45843;DHT22;31563;51.744;8.252;2024-03-23T12:59:58;28.00;43.90
45843;DHT22;31563;51.744;8.252;2024-03-23T13:02:26;28.10;43.80
45843;DHT22;31563;51.744;8.252;2024-03-23T13:04:53;28.00;43.40
45843;DHT22;31563;51.744;8.252;2024-03-23T13:07:21;28.10;43.30
45843;DHT22;31563;51.744;8.252;2024-03-23T13:09:49;28.30;43.80
45843;DHT22;31563;51.744;8.252;2024-03-23T13:12:20;28.00;35.50
45843;DHT22;31563;51.744;8.252;2024-03-23T13:14:46;27.20;33.20
45843;DHT22;31563;51.744;8.252;2024-03-23T13:17:14;26.60;33.30
45843;DHT22;31563;51.744;8.252;2024-03-23T13:19:41;26.40;36.00
45843;DHT22;31563;51.744;8.252;2024-03-23T13:22:08;26.40;37.70
45843;DHT22;31563;51.744;8.252;2024-03-23T13:24:37;25.90;34.20
45843;DHT22;31563;51.744;8.252;2024-03-23T13:27:05;25.00;34.30
45843;DHT22;31563;51.744;8.252;2024-03-23T13:29:34;24.30;36.20
45843;DHT22;31563;51.744;8.252;2024-03-23T13:32:03;23.50;36.10
45843;DHT22;31563;51.744;8.252;2024-03-23T13:34:29;23.60;36.00
45843;DHT22;31563;51.744;8.252;2024-03-23T13:36:57;24.60;35.60
45843;DHT22;31563;51.744;8.252;2024-03-23T13:39:24;25.40;34.40
45843;DHT22;31563;51.744;8.252;2024-03-23T13:41:53;25.10;35.50
45843;DHT22;31563;51.744;8.252;2024-03-23T13:44:22;24.30;34.60
45843;DHT22;31563;51.744;8.252;2024-03-23T13:46:53;23.40;35.00
45843;DHT22;31563;51.744;8.252;2024-03-23T13:49:25;22.50;35.90
45843;DHT22;31563;51.744;8.252;2024-03-23T13:51:53;22.10;36.90
45843;DHT22;31563;51.744;8.252;2024-03-23T13:54:20;21.50;38.00
45843;DHT22;31563;51.744;8.252;2024-03-23T13:56:48;21.10;38.20
45843;DHT22;31563;51.744;8.252;2024-03-23T13:59:14;21.70;38.50
45843;DHT22;31563;51.744;8.252;2024-03-23T14:01:41;24.20;36.90
45843;DHT22;31563;51.744;8.252;2024-03-23T14:04:09;25.50;34.50
45843;DHT22;31563;51.744;8.252;2024-03-23T14:06:37;25.10;34.30
45843;DHT22;31563;51.744;8.252;2024-03-23T14:09:03;24.20;34.80
45843;DHT22;31563;51.744;8.252;2024-03-23T14:11:30;24.10;35.20
45843;DHT22;31563;51.744;8.252;2024-03-23T14:13:56;26.00;34.20
45843;DHT22;31563;51.744;8.252;2024-03-23T14:16:25;29.00;30.60
45843;DHT22;31563;51.744;8.252;2024-03-23T14:18:51;30.90;29.60
45843;DHT22;31563;51.744;8.252;2024-03-23T14:21:19;31.50;28.30
45843;DHT22;31563;51.744;8.252;2024-03-23T14:23:45;31.80;28.40
45843;DHT22;31563;51.744;8.252;2024-03-23T14:26:12;33.20;30.20
45843;DHT22;31563;51.744;8.252;2024-03-23T14:28:38;30.70;30.00
45843;DHT22;31563;51.744;8.252;2024-03-23T14:31:06;27.90;30.10
45843;DHT22;31563;51.744;8.252;2024-03-23T14:33:36;26.20;34.80
45843;DHT22;31563;51.744;8.252;2024-03-23T14:36:05;25.30;36.40
45843;DHT22;31563;51.744;8.252;2024-03-23T14:38:33;24.80;37.20
45843;DHT22;31563;51.744;8.252;2024-03-23T14:41:00;24.40;38.70
45843;DHT22;31563;51.744;8.252;2024-03-23T14:43:29;23.80;38.00
45843;DHT22;31563;51.744;8.252;2024-03-23T14:46:07;23.40;37.90
45843;DHT22;31563;51.744;8.252;2024-03-23T14:48:34;22.80;38.40
45843;DHT22;31563;51.744;8.252;2024-03-23T14:51:01;23.40;38.40
45843;DHT22;31563;51.744;8.252;2024-03-23T14:53:34;23.80;37.70
45843;DHT22;31563;51.744;8.252;2024-03-23T14:56:02;25.60;36.50
45843;DHT22;31563;51.744;8.252;2024-03-23T14:58:29;28.90;33.50
45843;DHT22;31563;51.744;8.252;2024-03-23T15:01:00;27.70;33.40
45843;DHT22;31563;51.744;8.252;2024-03-23T15:03:27;28.70;32.90
45843;DHT22;31563;51.744;8.252;2024-03-23T15:05:55;29.00;32.10
45843;DHT22;31563;51.744;8.252;2024-03-23T15:08:21;29.70;31.10
45843;DHT22;31563;51.744;8.252;2024-03-23T15:10:49;28.70;30.50
45843;DHT22;31563;51.744;8.252;2024-03-23T15:13:16;29.10;31.70
45843;DHT22;31563;51.744;8.252;2024-03-23T15:15:44;29.30;30.50
45843;DHT22;31563;51.744;8.252;2024-03-23T15:18:11;29.50;30.90
45843;DHT22;31563;51.744;8.252;2024-03-23T15:20:40;27.80;30.90
45843;DHT22;31563;51.744;8.252;2024-03-23T15:23:06;25.30;31.80
45843;DHT22;31563;51.744;8.252;2024-03-23T15:25:34;24.50;34.80
45843;DHT22;31563;51.744;8.252;2024-03-23T15:28:01;26.60;33.70
45843;DHT22;31563;51.744;8.252;2024-03-23T15:30:28;28.90;32.00
45843;DHT22;31563;51.744;8.252;2024-03-23T15:32:54;30.60;30.70
45843;DHT22;31563;51.744;8.252;2024-03-23T15:35:21;29.80;30.20
45843;DHT22;31563;51.744;8.252;2024-03-23T15:37:49;30.10;31.00
45843;DHT22;31563;51.744;8.252;2024-03-23T15:40:16;31.30;30.70
45843;DHT22;31563;51.744;8.252;2024-03-23T15:42:43;30.90;30.50
45843;DHT22;31563;51.744;8.252;2024-03-23T15:45:11;31.10;31.30
45843;DHT22;31563;51.744;8.252;2024-03-23T15:47:37;31.60;30.10
45843;DHT22;31563;51.744;8.252;2024-03-23T15:50:05;30.80;30.80
45843;DHT22;31563;51.744;8.252;2024-03-23T15:52:35;30.10;31.60
45843;DHT22;31563;51.744;8.252;2024-03-23T15:55:03;31.10;32.00
45843;DHT22;31563;51.744;8.252;2024-03-23T15:57:33;31.80;31.30
45843;DHT22;31563;51.744;8.252;2024-03-23T16:00:00;31.50;30.50
45843;DHT22;31563;51.744;8.252;2024-03-23T16:02:28;31.60;31.90
45843;DHT22;31563;51.744;8.252;2024-03-23T16:04:55;32.40;31.20
45843;DHT22;31563;51.744;8.252;2024-03-23T16:07:22;32.10;31.30
45843;DHT22;31563;51.744;8.252;2024-03-23T16:09:49;32.50;31.10
45843;DHT22;31563;51.744;8.252;2024-03-23T16:12:15;32.60;30.90
45843;DHT22;31563;51.744;8.252;2024-03-23T16:14:42;32.70;30.90
45843;DHT22;31563;51.744;8.252;2024-03-23T16:17:09;32.50;31.10
45843;DHT22;31563;51.744;8.252;2024-03-23T16:19:37;32.20;31.50
45843;DHT22;31563;51.744;8.252;2024-03-23T16:22:03;30.50;32.60
45843;DHT22;31563;51.744;8.252;2024-03-23T16:24:30;29.00;34.50